Time;durP1;ratioP1;P1;durP2;ratioP2;P2;SDS_P1;SDS_P2;PMS_P1;PMS_P2;Temp;Humidity;BMP_temperature;BMP_pressure;BME280_temperature;BME280_humidity;BME280_pressure;Samples;Min_cycle;Max_cycle;Signal;HPM_P1;HPM_P2
2021/09/08 00:04:52;;;;;;;20.23;13.50;;;;;;;15.51;100.00;101947.41;10503053;28;20049;-51
2021/09/08 00:09:55;;;;;;;17.58;13.15;;;;;;;15.29;100.00;101941.72;10502399;28;20048;-56
2021/09/08 00:14:57;;;;;;;19.08;13.57;;;;;;;15.32;100.00;101945.03;10502277;28;20051;-52
2021/09/08 00:19:59;;;;;;;17.75;13.82;;;;;;;15.27;100.00;101940.97;10501929;28;20056;-53
2021/09/08 00:25:02;;;;;;;21.55;13.07;;;;;;;15.47;100.00;101934.53;10502204;28;20068;-51
2021/09/08 00:30:07;;;;;;;18.95;14.75;;;;;;;15.28;100.00;101927.69;10501794;28;20114;-50
2021/09/08 00:35:10;;;;;;;20.30;14.65;;;;;;;15.32;100.00;101921.28;10501494;28;20403;-53
2021/09/08 00:40:13;;;;;;;20.48;14.45;;;;;;;15.27;100.00;101918.06;10501052;28;20499;-51
2021/09/08 00:45:15;;;;;;;22.33;16.33;;;;;;;15.10;100.00;101913.81;10501025;28;20503;-54
2021/09/08 00:50:18;;;;;;;21.27;15.00;;;;;;;15.14;100.00;101909.19;10500423;28;20409;-54
2021/09/08 00:55:26;;;;;;;21.63;16.08;;;;;;;15.12;100.00;101909.28;10500702;28;20080;-52
2021/09/08 01:00:28;;;;;;;21.90;16.52;;;;;;;15.10;100.00;101907.69;10500411;28;20080;-54
2021/09/08 01:05:31;;;;;;;22.20;15.27;;;;;;;15.16;100.00;101905.53;10500144;28;20447;-53
2021/09/08 01:10:33;;;;;;;22.25;15.65;;;;;;;15.13;100.00;101902.19;10499921;28;20048;-53
2021/09/08 01:15:35;;;;;;;24.08;16.48;;;;;;;15.06;100.00;101899.06;10499572;28;20048;-51
2021/09/08 01:20:38;;;;;;;21.73;15.75;;;;;;;15.08;100.00;101905.13;10499590;28;20048;-52
2021/09/08 01:25:40;;;;;;;23.90;16.08;;;;;;;14.91;100.00;101900.84;10499567;28;20051;-53
2021/09/08 01:30:42;;;;;;;22.00;17.27;;;;;;;14.83;100.00;101900.44;10499142;28;20048;-54
2021/09/08 01:35:45;;;;;;;19.90;15.50;;;;;;;14.74;100.00;101904.44;10498972;28;20492;-52
2021/09/08 01:40:47;;;;;;;24.23;17.35;;;;;;;14.72;100.00;101903.69;10498888;28;20053;-52
2021/09/08 01:45:50;;;;;;;22.50;16.80;;;;;;;14.81;100.00;101895.25;10498601;28;20045;-53
2021/09/08 01:50:53;;;;;;;25.80;18.27;;;;;;;14.93;100.00;101888.41;10498424;28;20420;-50
2021/09/08 01:55:55;;;;;;;23.83;17.73;;;;;;;14.89;100.00;101889.53;10499103;28;20067;-54
2021/09/08 02:00:58;;;;;;;25.60;19.13;;;;;;;15.00;100.00;101881.84;10498161;28;20056;-53
2021/09/08 02:06:20;;;;;;;26.38;18.38;;;;;;;14.79;100.00;101885.72;10498810;28;20048;-54
2021/09/08 02:11:22;;;;;;;30.23;19.40;;;;;;;14.65;100.00;101890.00;10498296;28;20149;-53
2021/09/08 02:16:24;;;;;;;27.45;19.40;;;;;;;14.64;100.00;101882.19;10498195;28;20063;-51
2021/09/08 02:21:27;;;;;;;28.75;19.85;;;;;;;14.83;100.00;101889.91;10498040;28;20052;-54
2021/09/08 02:26:29;;;;;;;27.55;18.73;;;;;;;14.64;100.00;101884.81;10497908;28;20057;-50
2021/09/08 02:31:32;;;;;;;26.65;19.88;;;;;;;14.72;100.00;101887.03;10496718;28;20044;-52
2021/09/08 02:36:35;;;;;;;29.50;18.85;;;;;;;14.56;100.00;101887.00;10497524;28;20374;-55
2021/09/08 02:41:37;;;;;;;23.05;18.00;;;;;;;14.44;100.00;101878.00;10497903;28;20053;-49
2021/09/08 02:46:40;;;;;;;27.50;18.52;;;;;;;14.34;100.00;101867.16;10497340;28;20408;-52
2021/09/08 02:51:42;;;;;;;26.10;18.52;;;;;;;14.40;100.00;101865.97;10497222;28;20041;-52
2021/09/08 02:56:45;;;;;;;25.50;19.90;;;;;;;14.24;100.00;101866.81;10497342;28;20041;-51
2021/09/08 03:01:47;;;;;;;28.70;21.10;;;;;;;14.19;100.00;101860.97;10505074;28;20048;-51
2021/09/08 03:06:50;;;;;;;30.48;20.02;;;;;;;14.21;100.00;101850.34;10504883;28;20056;-51
2021/09/08 03:11:52;;;;;;;27.95;20.77;;;;;;;14.25;100.00;101846.59;10504841;28;20052;-51
2021/09/08 03:16:54;;;;;;;22.70;18.83;;;;;;;14.34;100.00;101846.09;10503714;28;20056;-53
2021/09/08 03:21:57;;;;;;;26.13;18.70;;;;;;;14.36;100.00;101844.22;10504734;28;20105;-49
2021/09/08 03:26:59;;;;;;;28.00;19.85;;;;;;;14.30;100.00;101845.38;10504151;28;20055;-53
2021/09/08 03:32:01;;;;;;;25.15;19.92;;;;;;;14.21;100.00;101850.34;10503982;28;20048;-51
2021/09/08 03:37:04;;;;;;;32.92;21.90;;;;;;;14.16;100.00;101842.69;10503744;28;20048;-50
2021/09/08 03:42:06;;;;;;;24.95;18.83;;;;;;;14.11;100.00;101836.84;10503548;28;20404;-49
2021/09/08 03:47:08;;;;;;;31.38;20.73;;;;;;;14.17;100.00;101838.28;10503423;28;20052;-51
2021/09/08 03:52:11;;;;;;;28.67;20.30;;;;;;;13.90;100.00;101831.84;10503601;28;20049;-52
2021/09/08 03:57:14;;;;;;;29.38;19.65;;;;;;;13.80;100.00;101824.50;10502902;28;20484;-53
2021/09/08 04:02:16;;;;;;;26.63;20.52;;;;;;;13.75;100.00;101822.13;10502992;28;20052;-50
2021/09/08 04:07:19;;;;;;;26.45;19.90;;;;;;;13.67;100.00;101808.56;10503155;28;20048;-51
2021/09/08 04:12:21;;;;;;;23.10;18.65;;;;;;;13.65;100.00;101819.16;10502326;28;20072;-52
2021/09/08 04:17:24;;;;;;;26.63;19.85;;;;;;;13.66;100.00;101809.47;10502007;28;20059;-48
2021/09/08 04:22:26;;;;;;;31.45;21.33;;;;;;;13.53;100.00;101804.00;10502964;28;20051;-49
2021/09/08 04:27:29;;;;;;;26.98;19.77;;;;;;;13.51;100.00;101804.09;10502047;28;20056;-52
2021/09/08 04:32:31;;;;;;;27.08;19.88;;;;;;;13.49;100.00;101805.13;10500490;28;20048;-51
2021/09/08 04:37:33;;;;;;;28.60;19.73;;;;;;;13.50;100.00;101798.91;10501279;28;20508;-50
2021/09/08 04:42:36;;;;;;;29.73;20.17;;;;;;;13.50;100.00;101802.41;10501708;28;20049;-52
2021/09/08 04:47:38;;;;;;;35.83;21.67;;;;;;;13.49;100.00;101802.50;10500983;28;20063;-51
2021/09/08 04:52:40;;;;;;;32.70;21.50;;;;;;;13.49;100.00;101802.50;10502060;28;20044;-54
2021/09/08 04:57:43;;;;;;;31.08;21.08;;;;;;;13.63;100.00;101799.13;10500443;28;20056;-52
2021/09/08 05:02:45;;;;;;;32.03;22.88;;;;;;;13.48;100.00;101800.78;10500758;28;20056;-50
2021/09/08 05:07:47;;;;;;;34.33;23.65;;;;;;;13.52;100.00;101799.69;10499898;28;20052;-52
2021/09/08 05:12:50;;;;;;;33.42;23.70;;;;;;;13.60;100.00;101787.00;10499966;28;20056;-52
2021/09/08 05:17:52;;;;;;;35.72;22.77;;;;;;;13.56;100.00;101785.44;10499713;28;20057;-52
2021/09/08 05:22:55;;;;;;;35.70;25.85;;;;;;;13.62;100.00;101790.38;10499097;28;20045;-51
2021/09/08 05:27:57;;;;;;;28.73;20.45;;;;;;;13.85;100.00;101794.38;10498985;28;20515;-50
2021/09/08 05:32:59;;;;;;;33.35;23.52;;;;;;;13.99;100.00;101784.88;10499561;28;20041;-50
2021/09/08 05:38:01;;;;;;;43.58;26.52;;;;;;;13.95;100.00;101786.81;10499015;28;20044;-52
2021/09/08 05:43:04;;;;;;;33.00;23.25;;;;;;;14.18;100.00;101779.41;10498798;28;20374;-53
2021/09/08 05:48:06;;;;;;;34.65;23.92;;;;;;;14.16;100.00;101786.56;10498817;28;20052;-50
2021/09/08 05:53:08;;;;;;;32.88;23.27;;;;;;;14.22;100.00;101786.19;10498555;28;20488;-52
2021/09/08 05:58:11;;;;;;;32.33;23.15;;;;;;;14.14;100.00;101781.38;10498418;28;20044;-51
2021/09/08 06:03:13;;;;;;;32.42;21.58;;;;;;;14.37;100.00;101798.47;10498465;28;20504;-55
2021/09/08 06:08:16;;;;;;;29.15;20.77;;;;;;;14.32;100.00;101784.72;10498033;28;20570;-53
2021/09/08 06:13:19;;;;;;;27.25;20.45;;;;;;;14.58;100.00;101783.22;10498245;28;20051;-52
2021/09/08 06:18:21;;;;;;;26.08;21.27;;;;;;;14.56;100.00;101789.50;10497856;28;20052;-51
2021/09/08 06:23:24;;;;;;;28.10;21.40;;;;;;;14.78;100.00;101786.50;10498008;28;20066;-52
2021/09/08 06:28:26;;;;;;;28.40;21.92;;;;;;;14.80;100.00;101780.19;10497879;28;20060;-52
2021/09/08 06:33:28;;;;;;;33.72;23.70;;;;;;;14.74;100.00;101770.00;10502630;28;20052;-51
2021/09/08 06:38:31;;;;;;;36.47;22.30;;;;;;;14.93;100.00;101769.75;10505964;28;20044;-55
2021/09/08 06:43:33;;;;;;;28.20;22.60;;;;;;;15.32;100.00;101767.41;10505984;28;20066;-51
2021/09/08 06:48:36;;;;;;;31.77;23.85;;;;;;;15.22;100.00;101769.78;10505527;28;20049;-51
2021/09/08 06:53:38;;;;;;;26.52;21.48;;;;;;;15.90;100.00;101776.97;10505616;28;20056;-52
2021/09/08 06:58:41;;;;;;;30.05;22.42;;;;;;;15.70;100.00;101770.28;10505363;28;20045;-54
2021/09/08 07:03:43;;;;;;;29.15;21.42;;;;;;;15.97;100.00;101766.88;10505026;28;20407;-50
2021/09/08 07:08:45;;;;;;;32.92;21.98;;;;;;;16.19;100.00;101760.16;10504824;28;20087;-51
2021/09/08 07:13:48;;;;;;;25.00;21.27;;;;;;;16.29;100.00;101754.19;10504772;28;20432;-50
2021/09/08 07:18:51;;;;;;;27.92;20.50;;;;;;;16.76;100.00;101748.41;10505072;28;20056;-52
2021/09/08 07:23:53;;;;;;;27.95;22.02;;;;;;;17.12;98.96;101744.22;10504304;28;20408;-51
2021/09/08 07:29:05;;;;;;;30.70;20.67;;;;;;;18.05;93.03;101738.44;10504239;28;20484;-55
2021/09/08 07:34:07;;;;;;;27.92;19.73;;;;;;;18.03;92.85;101733.25;10503841;28;20512;-51
2021/09/08 07:39:10;;;;;;;22.33;19.15;;;;;;;18.20;92.52;101727.53;10503579;28;20044;-50
2021/09/08 07:44:12;;;;;;;29.13;17.98;;;;;;;18.67;88.99;101735.50;10501738;28;20053;-51
2021/09/08 07:49:14;;;;;;;24.73;18.65;;;;;;;18.98;85.55;101725.22;10503198;28;20049;-50
2021/09/08 07:54:17;;;;;;;26.73;17.83;;;;;;;19.16;84.59;101716.75;10503670;28;20055;-52
2021/09/08 07:59:19;;;;;;;21.42;16.83;;;;;;;19.43;83.13;101716.34;10502840;28;20053;-53
2021/09/08 08:04:22;;;;;;;22.10;16.92;;;;;;;19.91;80.45;101720.50;10503379;28;20056;-55
2021/09/08 08:09:24;;;;;;;30.90;18.80;;;;;;;20.10;79.88;101722.47;10502657;28;20045;-52
2021/09/08 08:14:26;;;;;;;22.00;17.08;;;;;;;20.72;77.70;101713.66;10502238;28;20048;-54
2021/09/08 08:19:29;;;;;;;23.30;18.60;;;;;;;21.35;76.97;101704.66;10502374;28;20052;-53
2021/09/08 08:24:32;;;;;;;22.77;17.50;;;;;;;21.31;76.66;101700.56;10502174;28;20052;-52
2021/09/08 08:29:34;;;;;;;19.52;15.65;;;;;;;22.60;74.66;101706.66;10501791;28;20048;-54
2021/09/08 08:34:37;;;;;;;19.38;16.65;;;;;;;22.30;74.48;101710.38;10501751;28;20045;-56
2021/09/08 08:39:40;;;;;;;19.00;16.17;;;;;;;21.91;72.83;101710.38;10501297;28;20040;-56
2021/09/08 08:44:43;;;;;;;18.90;15.00;;;;;;;22.21;68.59;101706.69;10501452;28;20052;-52
2021/09/08 08:49:46;;;;;;;20.80;15.55;;;;;;;23.94;68.83;101693.72;10499770;28;20045;-54
2021/09/08 08:54:48;;;;;;;18.10;14.27;;;;;;;24.39;64.95;101697.19;10500146;28;20049;-56
2021/09/08 08:59:51;;;;;;;16.75;14.15;;;;;;;24.65;64.60;101687.38;10500298;28;20055;-52
2021/09/08 09:04:56;;;;;;;18.75;14.85;;;;;;;24.65;62.50;101691.88;10500935;28;20059;-55
2021/09/08 09:10:05;;;;;;;18.15;13.98;;;;;;;24.01;62.63;101688.59;10499759;28;20056;-56
2021/09/08 09:15:18;;;;;;;18.42;12.80;;;;;;;24.94;61.06;101679.97;10499624;28;20451;-55
2021/09/08 09:20:26;;;;;;;15.15;13.13;;;;;;;25.46;61.35;101673.63;10499453;28;20048;-51
2021/09/08 09:25:33;;;;;;;17.95;13.75;;;;;;;24.70;61.08;101668.16;10500304;28;20044;-56
2021/09/08 09:30:41;;;;;;;21.00;12.95;;;;;;;26.12;58.96;101661.09;10499412;28;20049;-53
2021/09/08 09:36:18;;;;;;;15.30;12.55;;;;;;;25.06;60.96;101654.56;10499854;28;20080;-53
2021/09/08 09:41:31;;;;;;;17.02;13.18;;;;;;;26.71;57.67;101654.59;10497659;28;20051;-56
2021/09/08 09:46:33;;;;;;;16.38;12.15;;;;;;;28.00;54.12;101660.38;10499370;28;20051;-54
2021/09/08 09:51:36;;;;;;;13.57;11.15;;;;;;;28.61;51.95;101650.31;10498739;28;20056;-53
2021/09/08 09:56:39;;;;;;;14.43;12.90;;;;;;;26.92;52.30;101643.25;10498400;28;20488;-54
2021/09/08 10:01:41;;;;;;;14.27;11.68;;;;;;;26.97;51.90;101633.66;10498610;28;20052;-57
2021/09/08 10:06:44;;;;;;;13.93;11.45;;;;;;;27.77;52.11;101629.78;10496912;28;20051;-53
2021/09/08 10:11:49;;;;;;;15.60;11.45;;;;;;;28.12;51.53;101631.97;10496974;28;20412;-57
2021/09/08 10:16:51;;;;;;;16.30;11.32;;;;;;;29.80;48.98;101614.06;10497231;28;20053;-55
2021/09/08 10:22:06;;;;;;;14.60;10.40;;;;;;;29.26;47.37;101616.25;10497886;28;20041;-54
2021/09/08 10:27:28;;;;;;;12.45;9.65;;;;;;;30.12;44.61;101615.31;10497597;28;20049;-55
2021/09/08 10:32:31;;;;;;;15.77;12.52;;;;;;;29.25;46.48;101603.81;10498670;28;20055;-54
2021/09/08 10:37:33;;;;;;;12.77;10.70;;;;;;;30.20;47.33;101588.16;10497309;28;20055;-54
2021/09/08 10:42:57;;;;;;;14.18;10.60;;;;;;;30.99;47.13;101583.34;10496589;28;20044;-54
2021/09/08 10:48:01;;;;;;;11.15;9.55;;;;;;;30.58;45.86;101575.28;10496506;28;20127;-52
2021/09/08 10:53:36;;;;;;;11.70;9.23;;;;;;;31.24;43.67;101569.25;10498072;28;20040;-54
2021/09/08 10:59:00;;;;;;;13.00;9.57;;;;;;;32.21;41.51;101565.00;10474475;28;20056;-56
2021/09/08 11:04:03;;;;;;;12.10;10.32;;;;;;;31.11;43.58;101549.22;10497291;28;20120;-57
2021/09/08 11:09:08;;;;;;;10.30;8.63;;;;;;;31.51;42.01;101551.16;10497187;28;20131;-56
2021/09/08 11:14:10;;;;;;;11.82;9.52;;;;;;;29.98;47.14;101543.41;10497263;28;20053;-56
2021/09/08 11:19:14;;;;;;;13.57;10.70;;;;;;;30.70;42.52;101541.25;10499035;28;20056;-55
2021/09/08 11:24:19;;;;;;;14.63;10.55;;;;;;;31.33;41.66;101540.94;10503019;28;20492;-53
2021/09/08 11:29:21;;;;;;;12.32;10.02;;;;;;;30.23;41.96;101532.94;10504308;28;20040;-56
2021/09/08 11:34:26;;;;;;;13.73;9.15;;;;;;;31.71;39.50;101539.47;10504132;28;20048;-55
2021/09/08 11:39:29;;;;;;;12.90;10.40;;;;;;;29.88;41.92;101534.84;10503824;28;20075;-55
2021/09/08 11:44:33;;;;;;;14.25;9.43;;;;;;;30.84;39.57;101528.59;10503692;28;20484;-57
2021/09/08 11:49:35;;;;;;;10.32;8.52;;;;;;;31.27;40.71;101522.81;10503635;28;20049;-57
2021/09/08 11:54:47;;;;;;;14.20;9.10;;;;;;;32.33;38.89;101510.13;10502313;28;20052;-57
2021/09/08 11:59:52;;;;;;;13.38;9.38;;;;;;;31.85;39.32;101514.03;10502713;28;20400;-58
2021/09/08 12:04:54;;;;;;;15.75;8.93;;;;;;;31.31;39.44;101499.75;10503164;28;20071;-56
2021/09/08 12:09:57;;;;;;;10.70;8.93;;;;;;;31.62;38.55;101507.22;10502491;28;20492;-56
2021/09/08 12:14:59;;;;;;;10.57;8.00;;;;;;;33.75;37.41;101493.47;10502174;28;20389;-56
2021/09/08 12:20:10;;;;;;;11.45;8.57;;;;;;;31.59;38.79;101491.41;10502126;28;20044;-58
2021/09/08 12:25:17;;;;;;;11.57;7.63;;;;;;;32.23;40.38;101483.53;10502515;28;20055;-55
2021/09/08 12:30:20;;;;;;;16.83;8.65;;;;;;;31.01;38.49;101475.81;10501588;28;20048;-56
2021/09/08 12:35:43;;;;;;;11.43;8.07;;;;;;;31.91;38.86;101474.44;10501594;28;20404;-58
2021/09/08 12:41:07;;;;;;;10.05;7.90;;;;;;;30.22;38.22;101461.06;10501335;28;20098;-55
2021/09/08 12:46:09;;;;;;;9.18;7.97;;;;;;;32.08;35.05;101453.16;10501308;28;20400;-57
2021/09/08 12:51:12;;;;;;;13.60;7.47;;;;;;;32.34;36.50;101446.78;10500693;28;20083;-58
2021/09/08 12:56:16;;;;;;;8.18;6.50;;;;;;;32.51;36.91;101444.38;10500870;28;20044;-57
2021/09/08 13:01:21;;;;;;;8.35;6.80;;;;;;;32.02;35.11;101444.81;10500510;28;20059;-57
2021/09/08 13:06:24;;;;;;;10.20;6.93;;;;;;;32.64;33.57;101435.38;10500540;28;20050;-53
2021/09/08 13:11:27;;;;;;;7.85;6.95;;;;;;;33.27;32.80;101432.56;10500460;28;20052;-57
2021/09/08 13:16:35;;;;;;;9.35;7.03;;;;;;;31.29;35.10;101434.19;10499318;28;20059;-58
2021/09/08 13:21:40;;;;;;;12.90;5.93;;;;;;;33.11;35.87;101422.25;10500224;28;20048;-58
2021/09/08 13:26:44;;;;;;;7.95;6.93;;;;;;;32.98;31.69;101412.34;10499507;28;20110;-56
2021/09/08 13:31:47;;;;;;;9.75;6.75;;;;;;;31.59;38.05;101407.53;10499331;28;20500;-56
2021/09/08 13:36:51;;;;;;;9.15;6.70;;;;;;;33.88;33.79;101394.72;10499217;28;20128;-55
2021/09/08 13:41:58;;;;;;;8.18;6.32;;;;;;;32.88;33.67;101399.28;10498944;28;20053;-56
2021/09/08 13:47:00;;;;;;;6.10;5.50;;;;;;;34.31;32.24;101385.56;10498762;28;20408;-56
2021/09/08 13:52:03;;;;;;;11.82;7.00;;;;;;;30.82;36.01;101390.13;10498546;28;20449;-56
2021/09/08 13:57:06;;;;;;;5.55;5.00;;;;;;;31.41;33.56;101372.16;10497441;28;20075;-57
2021/09/08 14:02:08;;;;;;;6.07;5.32;;;;;;;33.41;33.66;101354.56;10498352;28;20055;-54
2021/09/08 14:07:27;;;;;;;6.93;5.35;;;;;;;31.34;35.74;101357.81;10498605;28;20044;-56
2021/09/08 14:12:29;;;;;;;5.53;5.03;;;;;;;32.27;35.48;101360.13;10498316;28;20059;-56
2021/09/08 14:17:32;;;;;;;12.52;5.25;;;;;;;32.64;33.77;101344.03;10497177;28;20052;-57
2021/09/08 14:22:35;;;;;;;6.32;5.35;;;;;;;32.27;32.27;101343.06;10498184;28;20045;-56
2021/09/08 14:27:37;;;;;;;7.25;5.57;;;;;;;32.52;33.84;101337.66;10496629;28;20052;-57
2021/09/08 14:32:40;;;;;;;6.30;5.70;;;;;;;31.89;33.84;101330.34;10498067;28;20056;-58
2021/09/08 14:37:42;;;;;;;9.23;5.78;;;;;;;32.96;32.22;101324.97;10497697;28;20516;-57
2021/09/08 14:42:46;;;;;;;7.90;5.68;;;;;;;32.44;36.18;101313.53;10497798;28;20087;-58
2021/09/08 14:47:49;;;;;;;9.02;7.75;;;;;;;30.51;38.92;101318.59;10497101;28;20057;-58
2021/09/08 14:52:51;;;;;;;8.35;6.97;;;;;;;32.00;36.16;101306.09;10499444;28;20051;-54
2021/09/08 14:57:54;;;;;;;10.25;7.85;;;;;;;29.22;40.77;101293.31;10505361;28;20497;-57
2021/09/08 15:02:56;;;;;;;8.20;7.00;;;;;;;31.32;38.56;101289.56;10504858;28;20515;-58
2021/09/08 15:07:59;;;;;;;7.95;7.15;;;;;;;31.56;38.90;101277.25;10505080;28;20538;-57
2021/09/08 15:13:02;;;;;;;8.65;7.47;;;;;;;30.22;39.53;101282.00;10504928;28;20136;-58
2021/09/08 15:18:04;;;;;;;11.20;7.53;;;;;;;32.71;35.21;101268.06;10504936;28;20052;-55
2021/09/08 15:23:06;;;;;;;8.38;6.80;;;;;;;31.92;36.91;101276.59;10504437;28;20040;-56
2021/09/08 15:28:09;;;;;;;7.82;6.93;;;;;;;31.04;37.30;101264.50;10503962;28;20052;-56
2021/09/08 15:33:15;;;;;;;12.02;7.13;;;;;;;29.59;41.46;101259.63;10503088;28;20377;-57
2021/09/08 15:38:18;;;;;;;11.80;7.38;;;;;;;27.99;43.80;101253.16;10504137;28;20056;-56
2021/09/08 15:43:20;;;;;;;9.85;6.57;;;;;;;28.88;46.15;101247.28;10504037;28;20047;-55
2021/09/08 15:48:22;;;;;;;11.95;9.40;;;;;;;28.38;46.53;101238.41;10503436;28;20055;-57
2021/09/08 15:53:25;;;;;;;12.05;9.18;;;;;;;27.88;48.60;101241.03;10503345;28;20370;-57
2021/09/08 15:58:28;;;;;;;14.98;9.85;;;;;;;27.27;50.16;101230.59;10503147;28;20051;-54
2021/09/08 16:03:31;;;;;;;11.20;8.85;;;;;;;27.20;51.36;101226.97;10503203;28;20049;-55
2021/09/08 16:08:34;;;;;;;15.35;9.80;;;;;;;26.86;52.95;101218.50;10502360;28;20404;-54
2021/09/08 16:13:37;;;;;;;11.90;7.85;;;;;;;26.47;57.45;101214.16;10503218;28;20051;-56
2021/09/08 16:18:39;;;;;;;20.35;8.18;;;;;;;25.90;62.34;101211.94;10502020;28;20515;-55
2021/09/08 16:23:42;;;;;;;9.00;8.07;;;;;;;26.02;64.20;101221.25;10502376;28;20041;-53
2021/09/08 16:28:44;;;;;;;13.93;9.07;;;;;;;25.57;65.05;101215.69;10502084;28;20056;-55
2021/09/08 16:33:47;;;;;;;12.23;9.10;;;;;;;25.08;68.65;101215.06;10500542;28;20050;-55
2021/09/08 16:38:49;;;;;;;14.25;9.07;;;;;;;24.81;68.52;101201.06;10501548;28;20056;-56
2021/09/08 16:43:53;;;;;;;12.75;9.07;;;;;;;24.75;70.88;101207.13;10501341;28;20488;-55
2021/09/08 16:48:55;;;;;;;13.70;8.63;;;;;;;24.26;74.21;101190.13;10500748;28;20386;-56
2021/09/08 16:53:58;;;;;;;16.30;8.75;;;;;;;23.90;77.47;101185.09;10500909;28;20436;-54
2021/09/08 16:59:00;;;;;;;8.80;7.88;;;;;;;24.14;77.32;101179.91;10499563;28;20051;-56
2021/09/08 17:04:02;;;;;;;11.57;9.68;;;;;;;23.50;81.34;101188.50;10501197;28;20119;-54
2021/09/08 17:09:05;;;;;;;12.05;9.55;;;;;;;23.79;79.77;101184.56;10499957;28;20071;-54
2021/09/08 17:14:07;;;;;;;11.40;8.85;;;;;;;23.21;82.24;101187.09;10501028;28;20048;-51
2021/09/08 17:19:10;;;;;;;13.32;8.55;;;;;;;23.04;83.60;101178.16;10498852;28;20067;-55
2021/09/08 17:24:12;;;;;;;11.27;10.07;;;;;;;22.86;84.82;101180.91;10499884;28;20045;-53
2021/09/08 17:29:15;;;;;;;11.40;9.27;;;;;;;22.61;85.30;101178.13;10499269;28;20443;-56
2021/09/08 17:34:18;;;;;;;14.13;10.02;;;;;;;22.53;85.51;101172.72;10499280;28;20507;-55
2021/09/08 17:39:21;;;;;;;14.68;10.30;;;;;;;22.20;88.54;101172.47;10498792;28;20052;-53
2021/09/08 17:44:23;;;;;;;12.63;10.00;;;;;;;22.03;88.66;101176.00;10499344;28;20056;-54
2021/09/08 17:49:26;;;;;;;15.82;10.40;;;;;;;22.02;89.02;101179.66;10498649;28;20056;-54
2021/09/08 17:54:28;;;;;;;15.77;10.75;;;;;;;21.74;89.57;101179.75;10498652;28;20408;-56
2021/09/08 17:59:30;;;;;;;11.18;10.10;;;;;;;21.73;88.59;101178.06;10498250;28;20049;-54
2021/09/08 18:04:33;;;;;;;12.93;11.15;;;;;;;21.42;90.61;101189.03;10498256;28;20489;-54
2021/09/08 18:09:35;;;;;;;15.07;11.45;;;;;;;21.08;92.88;101189.66;10498428;28;20048;-54
2021/09/08 18:14:37;;;;;;;14.40;10.73;;;;;;;21.04;92.53;101198.06;10498826;28;20047;-53
2021/09/08 18:19:41;;;;;;;14.90;11.80;;;;;;;21.11;90.81;101202.63;10498273;28;20060;-57
2021/09/08 18:24:43;;;;;;;12.48;11.23;;;;;;;20.84;91.80;101195.47;10498129;28;20055;-57
2021/09/08 18:29:46;;;;;;;15.68;10.75;;;;;;;20.65;92.73;101196.38;10497473;28;20051;-55
2021/09/08 18:34:49;;;;;;;15.57;11.73;;;;;;;20.51;93.80;101196.78;10496677;28;20048;-56
2021/09/08 18:39:53;;;;;;;14.07;12.05;;;;;;;20.48;92.17;101192.59;10497627;28;20045;-56
2021/09/08 18:44:58;;;;;;;23.10;12.10;;;;;;;20.28;93.78;101196.28;10496737;28;20051;-55
2021/09/08 18:50:00;;;;;;;12.43;10.95;;;;;;;20.06;95.57;101190.28;10497270;28;20048;-57
2021/09/08 18:55:04;;;;;;;13.15;11.68;;;;;;;20.03;95.76;101194.03;10497487;28;20045;-55
2021/09/08 19:00:09;;;;;;;12.52;11.27;;;;;;;19.99;95.06;101187.34;10497081;28;20056;-54
2021/09/08 19:05:15;;;;;;;16.00;12.00;;;;;;;19.86;96.45;101194.75;10497697;28;20049;-55
2021/09/08 19:10:17;;;;;;;12.05;10.75;;;;;;;19.79;96.92;101199.78;10495741;28;20049;-55
2021/09/08 19:15:20;;;;;;;16.58;12.18;;;;;;;19.70;98.17;101197.06;10497386;28;20384;-56
2021/09/08 19:20:23;;;;;;;13.02;11.45;;;;;;;19.61;96.72;101191.59;10497012;28;20044;-54
2021/09/08 19:25:25;;;;;;;17.05;12.32;;;;;;;19.55;98.15;101202.81;10497425;28;20045;-55
2021/09/08 19:30:30;;;;;;;14.05;12.43;;;;;;;19.27;99.82;101201.75;10496567;28;20492;-55
2021/09/08 19:35:33;;;;;;;14.00;10.82;;;;;;;19.54;97.39;101202.94;10496719;28;20488;-53
2021/09/08 19:40:35;;;;;;;13.68;11.10;;;;;;;19.47;97.96;101199.97;10499125;28;20041;-57
2021/09/08 19:45:38;;;;;;;13.50;12.00;;;;;;;19.36;98.47;101202.75;10504020;28;20045;-55
2021/09/08 19:50:43;;;;;;;13.43;12.02;;;;;;;19.07;100.00;101201.66;10503211;28;20090;-56
2021/09/08 19:55:46;;;;;;;13.85;11.57;;;;;;;19.04;100.00;101193.13;10503122;28;20492;-54
2021/09/08 20:00:48;;;;;;;17.88;11.45;;;;;;;18.99;100.00;101182.91;10503103;28;20045;-55
2021/09/08 20:05:51;;;;;;;16.88;11.57;;;;;;;18.96;100.00;101185.81;10503371;28;20048;-55
2021/09/08 20:10:53;;;;;;;12.98;10.60;;;;;;;18.77;100.00;101189.22;10502698;28;20071;-55
2021/09/08 20:15:56;;;;;;;12.13;10.43;;;;;;;18.54;100.00;101188.50;10502495;28;20052;-56
2021/09/08 20:20:58;;;;;;;14.65;10.85;;;;;;;18.62;100.00;101187.88;10502298;28;20048;-53
2021/09/08 20:26:00;;;;;;;15.27;11.57;;;;;;;18.69;100.00;101186.38;10502067;28;20512;-57
2021/09/08 20:31:03;;;;;;;17.10;12.05;;;;;;;18.59;100.00;101185.47;10501890;28;20053;-50
2021/09/08 20:36:06;;;;;;;16.83;12.40;;;;;;;18.33;100.00;101193.84;10502355;28;20105;-54
2021/09/08 20:41:08;;;;;;;17.58;12.82;;;;;;;18.35;100.00;101187.41;10501484;28;20107;-53
2021/09/08 20:46:10;;;;;;;13.63;10.90;;;;;;;18.33;100.00;101183.22;10501316;28;20071;-56
2021/09/08 20:51:13;;;;;;;13.43;11.80;;;;;;;18.31;100.00;101179.88;10501131;28;20094;-54
2021/09/08 20:56:15;;;;;;;14.80;11.77;;;;;;;18.14;100.00;101176.81;10500849;28;20119;-55
2021/09/08 21:01:19;;;;;;;16.02;12.73;;;;;;;17.80;100.00;101184.03;10500781;28;20049;-54
2021/09/08 21:06:22;;;;;;;16.95;12.57;;;;;;;18.05;100.00;101169.63;10500508;28;20407;-53
2021/09/08 21:11:24;;;;;;;14.25;12.68;;;;;;;18.21;100.00;101171.84;10500267;28;20044;-53
2021/09/08 21:16:27;;;;;;;16.33;13.00;;;;;;;18.15;100.00;101170.53;10500223;28;20059;-53
2021/09/08 21:21:30;;;;;;;17.02;12.52;;;;;;;17.88;100.00;101171.03;10499668;28;20143;-54
2021/09/08 21:26:32;;;;;;;16.88;11.88;;;;;;;17.92;100.00;101159.22;10499608;28;20053;-53
2021/09/08 21:31:35;;;;;;;13.75;12.05;;;;;;;17.76;100.00;101156.97;10499441;28;20049;-56
2021/09/08 21:36:37;;;;;;;15.10;11.73;;;;;;;17.75;100.00;101152.66;10499189;28;20369;-54
2021/09/08 21:41:39;;;;;;;18.55;12.75;;;;;;;17.98;100.00;101158.69;10499278;28;20090;-52
2021/09/08 21:46:42;;;;;;;13.82;11.70;;;;;;;17.76;100.00;101150.81;10499116;28;20044;-54
2021/09/08 21:51:44;;;;;;;14.25;12.77;;;;;;;17.60;100.00;101159.16;10498751;28;20074;-58
2021/09/08 21:56:46;;;;;;;19.05;13.02;;;;;;;17.82;100.00;101153.81;10498848;28;20055;-55
2021/09/08 22:01:49;;;;;;;15.23;13.05;;;;;;;17.68;100.00;101147.97;10498149;28;20070;-57
2021/09/08 22:06:52;;;;;;;17.90;13.00;;;;;;;17.49;100.00;101149.47;10498579;28;20051;-55
2021/09/08 22:11:54;;;;;;;14.55;12.90;;;;;;;17.35;100.00;101153.22;10498115;28;20057;-51
2021/09/08 22:16:57;;;;;;;17.52;12.90;;;;;;;17.17;100.00;101154.72;10498609;28;20048;-53
2021/09/08 22:22:00;;;;;;;16.77;11.55;;;;;;;17.22;100.00;101152.53;10498161;28;20048;-52
2021/09/08 22:27:03;;;;;;;16.52;13.27;;;;;;;17.13;100.00;101151.47;10498689;28;20044;-56
2021/09/08 22:32:06;;;;;;;14.95;12.55;;;;;;;17.07;100.00;101149.31;10497793;28;20045;-52
2021/09/08 22:37:08;;;;;;;15.40;12.73;;;;;;;17.06;100.00;101152.91;10498002;28;20049;-52
2021/09/08 22:42:11;;;;;;;18.40;12.65;;;;;;;16.94;100.00;101152.06;10497791;28;20056;-55
2021/09/08 22:47:13;;;;;;;16.13;13.30;;;;;;;17.05;100.00;101151.25;10497676;28;20519;-55